Time;durP1;ratioP1;P1;durP2;ratioP2;P2;SDS_P1;SDS_P2;PMS_P1;PMS_P2;Temp;Humidity;BMP_temperature;BMP_pressure;BME280_temperature;BME280_humidity;BME280_pressure;Samples;Min_cycle;Max_cycle;Signal;HPM_P1;HPM_P2
2023/06/11 00:01:52;;;;;;;7.45;3.95;;;;;;;18.32;40.94;101656.84;5034946;28;20141;-57
2023/06/11 00:04:19;;;;;;;13.10;4.20;;;;;;;18.30;40.56;101650.72;5035458;28;20140;-56
2023/06/11 00:06:46;;;;;;;7.72;3.92;;;;;;;18.30;40.52;101660.56;5034388;28;20053;-58
2023/06/11 00:09:13;;;;;;;9.35;3.55;;;;;;;18.25;40.52;101651.97;5035109;28;20055;-57
2023/06/11 00:11:41;;;;;;;9.05;4.15;;;;;;;18.21;40.47;101650.44;5035430;28;20133;-58
2023/06/11 00:14:09;;;;;;;5.72;3.10;;;;;;;18.13;40.60;101661.66;5035633;28;20046;-57
2023/06/11 00:16:36;;;;;;;7.82;3.80;;;;;;;18.05;40.80;101656.78;5034505;28;20564;-57
2023/06/11 00:19:04;;;;;;;8.88;3.60;;;;;;;18.02;41.11;101662.31;5034942;28;20049;-57
2023/06/11 00:21:31;;;;;;;8.15;3.60;;;;;;;18.00;40.86;101658.88;5035329;28;20055;-58
2023/06/11 00:23:59;;;;;;;4.65;2.92;;;;;;;17.98;41.16;101660.75;5035378;28;20401;-58
2023/06/11 00:26:26;;;;;;;7.20;3.67;;;;;;;17.89;41.23;101658.69;5034267;28;20092;-57
2023/06/11 00:28:52;;;;;;;9.68;3.65;;;;;;;17.83;41.19;101661.69;5035126;28;20054;-57
2023/06/11 00:31:19;;;;;;;6.82;3.38;;;;;;;17.80;41.13;101652.03;5034393;28;20088;-57
2023/06/11 00:33:45;;;;;;;5.32;3.47;;;;;;;17.73;41.59;101656.06;5034183;28;20053;-58
2023/06/11 00:36:12;;;;;;;5.60;3.45;;;;;;;17.71;41.38;101661.50;5034683;28;20119;-58
2023/06/11 00:38:40;;;;;;;5.93;2.97;;;;;;;17.69;41.84;101666.09;5034078;28;20132;-57
2023/06/11 00:41:07;;;;;;;7.00;3.50;;;;;;;17.56;41.89;101665.13;5034346;28;20056;-58
2023/06/11 00:43:33;;;;;;;7.35;4.10;;;;;;;17.49;42.12;101670.00;5033739;28;20545;-57
2023/06/11 00:46:02;;;;;;;12.27;3.97;;;;;;;17.49;42.20;101667.31;5034712;28;20049;-57
2023/06/11 00:48:29;;;;;;;13.88;3.92;;;;;;;17.47;42.03;101665.66;5034664;28;20096;-57
2023/06/11 00:50:56;;;;;;;6.25;3.08;;;;;;;17.40;42.25;101665.19;5034951;28;20064;-57
2023/06/11 00:53:22;;;;;;;6.38;3.28;;;;;;;17.38;42.53;101665.28;5033846;28;20065;-57
2023/06/11 00:55:49;;;;;;;10.98;3.25;;;;;;;17.38;42.47;101673.28;5034604;28;20057;-58
2023/06/11 00:58:17;;;;;;;13.45;3.53;;;;;;;17.35;42.97;101668.13;5033546;28;20136;-57
2023/06/11 01:00:47;;;;;;;7.50;3.58;;;;;;;17.26;43.10;101666.00;5033568;28;20111;-58
2023/06/11 01:03:18;;;;;;;7.40;3.42;;;;;;;17.19;43.41;101661.97;5034532;28;20041;-57
2023/06/11 01:05:49;;;;;;;21.10;3.75;;;;;;;17.15;43.45;101676.47;5034374;28;20136;-58
2023/06/11 01:08:19;;;;;;;10.15;3.38;;;;;;;17.10;43.82;101679.41;5034093;28;20119;-57
2023/06/11 01:10:47;;;;;;;8.70;3.47;;;;;;;16.97;44.00;101668.56;5032901;28;20053;-58
2023/06/11 01:13:13;;;;;;;7.45;3.53;;;;;;;16.93;43.98;101667.03;5034303;28;20049;-57
2023/06/11 01:15:40;;;;;;;8.35;3.17;;;;;;;16.89;44.45;101670.84;5034071;28;20049;-57
2023/06/11 01:18:19;;;;;;;12.85;3.28;;;;;;;16.80;44.68;101672.16;5033207;28;20045;-58
2023/06/11 01:20:56;;;;;;;9.35;3.05;;;;;;;16.75;45.11;101678.75;5048774;28;20076;-58
2023/06/11 01:23:41;;;;;;;9.23;3.42;;;;;;;16.62;45.39;101674.06;5034086;28;20041;-57
2023/06/11 01:26:28;;;;;;;8.60;2.67;;;;;;;16.56;45.38;101679.78;5034097;28;20095;-57
2023/06/11 01:28:58;;;;;;;5.50;3.13;;;;;;;16.58;46.03;101688.56;5033245;28;20446;-57
2023/06/11 01:31:29;;;;;;;4.80;3.08;;;;;;;16.51;46.04;101687.19;5034098;28;20527;-57
2023/06/11 01:33:57;;;;;;;7.65;2.97;;;;;;;16.45;45.97;101682.19;5033941;28;20049;-57
2023/06/11 01:36:29;;;;;;;8.18;2.90;;;;;;;16.47;46.38;101680.28;5033399;28;20458;-57
2023/06/11 01:38:58;;;;;;;7.55;3.08;;;;;;;16.34;46.40;101680.97;5032687;28;20072;-57
2023/06/11 01:41:27;;;;;;;8.43;3.13;;;;;;;16.31;46.80;101683.81;5033833;28;20049;-57
2023/06/11 01:43:53;;;;;;;7.03;3.30;;;;;;;16.20;47.09;101693.34;5033749;28;20053;-57
2023/06/11 01:46:20;;;;;;;7.78;3.45;;;;;;;16.23;47.19;101691.38;5032043;28;20137;-58
2023/06/11 01:48:46;;;;;;;7.45;3.33;;;;;;;16.22;47.38;101692.31;5033966;28;20053;-57
2023/06/11 01:51:14;;;;;;;11.10;3.15;;;;;;;16.10;47.45;101690.31;5032321;28;20045;-58
2023/06/11 01:53:41;;;;;;;7.28;2.72;;;;;;;15.96;47.55;101691.91;5033515;28;20053;-57
2023/06/11 01:56:08;;;;;;;6.40;2.83;;;;;;;15.88;47.97;101694.13;5031897;28;20052;-57
2023/06/11 01:58:37;;;;;;;5.07;2.90;;;;;;;15.83;48.27;101696.19;5033450;28;20049;-57
2023/06/11 02:01:04;;;;;;;8.85;3.80;;;;;;;15.76;48.82;101692.97;5032519;28;20120;-57
2023/06/11 02:03:30;;;;;;;7.20;3.10;;;;;;;15.67;48.69;101696.06;5032574;28;20335;-57
2023/06/11 02:05:57;;;;;;;11.43;3.58;;;;;;;15.66;49.41;101698.81;5031700;28;20103;-57
2023/06/11 02:08:23;;;;;;;5.40;2.60;;;;;;;15.56;49.53;101694.00;5032902;28;20413;-57
2023/06/11 02:10:50;;;;;;;8.10;3.83;;;;;;;15.52;49.94;101695.06;5033373;28;20112;-57
2023/06/11 02:13:16;;;;;;;4.55;2.85;;;;;;;15.47;50.15;101699.78;5032035;28;20038;-57
2023/06/11 02:15:43;;;;;;;4.65;3.03;;;;;;;15.41;50.66;101700.97;5033326;28;20168;-57
2023/06/11 02:18:09;;;;;;;5.38;3.42;;;;;;;15.47;50.92;101698.94;5033374;28;20164;-57
2023/06/11 02:20:36;;;;;;;5.30;2.95;;;;;;;15.50;50.85;101688.97;5032698;28;20049;-57
2023/06/11 02:23:03;;;;;;;5.05;3.03;;;;;;;15.57;51.12;101693.03;5031734;28;20045;-57
2023/06/11 02:25:30;;;;;;;5.45;3.40;;;;;;;15.61;51.14;101696.41;5032523;28;20128;-57
2023/06/11 02:27:56;;;;;;;5.38;3.00;;;;;;;15.57;51.10;101693.03;5033143;28;20077;-57
2023/06/11 02:30:23;;;;;;;6.05;2.75;;;;;;;15.49;51.56;101697.03;5032485;28;20045;-57
2023/06/11 02:32:49;;;;;;;10.45;3.55;;;;;;;15.40;51.82;101698.38;5031393;28;20056;-57
2023/06/11 02:35:16;;;;;;;10.20;3.20;;;;;;;15.36;51.88;101699.47;5032744;28;20049;-57
2023/06/11 02:37:42;;;;;;;9.23;3.10;;;;;;;15.31;52.08;101702.34;5033293;28;20049;-57
2023/06/11 02:40:10;;;;;;;10.10;3.17;;;;;;;15.23;52.11;101702.75;5032056;28;20140;-57
2023/06/11 02:42:36;;;;;;;9.95;3.92;;;;;;;15.18;52.43;101702.09;5032797;28;20049;-57
2023/06/11 02:45:03;;;;;;;8.82;3.42;;;;;;;15.12;52.54;101699.78;5031276;28;20042;-57
2023/06/11 02:47:30;;;;;;;5.35;2.67;;;;;;;15.08;52.60;101703.50;5046369;28;20136;-57
2023/06/11 02:49:57;;;;;;;6.38;2.88;;;;;;;15.02;52.78;101701.16;5032005;28;20049;-57
2023/06/11 02:52:23;;;;;;;7.40;2.63;;;;;;;14.97;53.45;101705.84;5032478;28;20067;-57
2023/06/11 02:54:50;;;;;;;11.05;2.90;;;;;;;14.90;53.50;101707.09;5032109;28;20064;-57
2023/06/11 02:57:16;;;;;;;9.23;2.85;;;;;;;14.90;53.65;101709.75;5031856;28;20049;-57
2023/06/11 02:59:43;;;;;;;12.40;4.22;;;;;;;14.85;53.25;101712.63;5030493;28;20308;-57
2023/06/11 03:02:09;;;;;;;16.95;3.25;;;;;;;14.84;54.04;101713.56;5031414;28;20076;-57
2023/06/11 03:04:36;;;;;;;6.72;3.00;;;;;;;14.79;53.95;101716.44;5030782;28;20051;-58
2023/06/11 03:07:03;;;;;;;9.00;3.13;;;;;;;14.80;53.66;101725.31;5031697;28;20076;-58
2023/06/11 03:09:29;;;;;;;5.97;2.83;;;;;;;14.78;53.59;101722.72;5047581;28;20111;-57
2023/06/11 03:11:56;;;;;;;6.85;2.42;;;;;;;14.85;53.46;101718.81;5030303;28;20046;-57
2023/06/11 03:14:24;;;;;;;5.90;2.90;;;;;;;14.84;53.74;101721.53;5032469;28;20401;-57
2023/06/11 03:16:51;;;;;;;5.90;2.55;;;;;;;14.80;53.93;101726.16;5031864;28;20049;-57
2023/06/11 03:19:18;;;;;;;6.30;2.63;;;;;;;14.80;53.94;101731.47;5031572;28;20385;-57
2023/06/11 03:21:45;;;;;;;6.85;2.95;;;;;;;14.77;54.03;101726.28;5031676;28;20065;-57
2023/06/11 03:24:11;;;;;;;9.27;3.30;;;;;;;14.78;54.23;101733.34;5032326;28;20123;-57
2023/06/11 03:26:38;;;;;;;4.68;2.80;;;;;;;14.73;54.46;101730.06;5047224;28;20045;-58
2023/06/11 03:29:04;;;;;;;4.40;2.72;;;;;;;14.75;54.14;101733.50;5031986;28;20471;-57
2023/06/11 03:31:31;;;;;;;8.20;3.33;;;;;;;14.78;54.17;101733.34;5030670;28;20057;-57
2023/06/11 03:33:58;;;;;;;9.60;3.40;;;;;;;14.80;54.13;101730.63;5035211;28;20045;-57
2023/06/11 03:36:24;;;;;;;7.47;3.28;;;;;;;14.82;54.24;101732.25;5034517;28;20080;-57
2023/06/11 03:38:51;;;;;;;17.90;3.80;;;;;;;14.80;54.25;101730.63;5035059;28;20045;-57
2023/06/11 03:41:17;;;;;;;7.72;3.20;;;;;;;14.78;54.31;101736.00;5035372;28;20041;-57
2023/06/11 03:43:44;;;;;;;10.52;2.55;;;;;;;14.83;54.36;101730.47;5034808;28;20037;-57
2023/06/11 03:46:10;;;;;;;5.65;2.42;;;;;;;14.82;54.59;101734.91;5035594;28;20681;-57
2023/06/11 03:48:37;;;;;;;5.40;2.72;;;;;;;14.80;54.84;101730.63;5036209;28;20068;-57
2023/06/11 03:51:03;;;;;;;10.63;2.78;;;;;;;14.80;54.78;101736.78;5034044;28;20390;-57
2023/06/11 03:53:30;;;;;;;8.13;3.20;;;;;;;14.78;54.76;101728.03;5035005;28;20350;-57
2023/06/11 03:55:56;;;;;;;8.55;3.70;;;;;;;14.77;55.16;101731.63;5035421;28;20220;-57
2023/06/11 03:58:23;;;;;;;4.05;2.65;;;;;;;14.76;54.97;101735.22;5034888;28;20068;-57
2023/06/11 04:00:50;;;;;;;8.57;2.20;;;;;;;14.78;55.26;101735.16;5035409;28;20075;-58
2023/06/11 04:03:16;;;;;;;8.52;2.80;;;;;;;14.75;55.22;101733.50;5035106;28;20056;-57
2023/06/11 04:05:43;;;;;;;8.38;2.72;;;;;;;14.84;54.58;101734.84;5034976;28;20470;-57
2023/06/11 04:08:10;;;;;;;7.10;2.50;;;;;;;14.91;54.11;101732.75;5034368;28;20061;-57
2023/06/11 04:10:36;;;;;;;7.80;2.28;;;;;;;14.99;54.42;101743.88;5034236;28;20796;-57
2023/06/11 04:13:03;;;;;;;8.18;2.58;;;;;;;14.97;54.52;101743.09;5035146;28;20132;-57
2023/06/11 04:15:31;;;;;;;4.50;2.55;;;;;;;15.00;54.76;101745.63;5016254;28;20046;-57
2023/06/11 04:17:57;;;;;;;12.27;2.97;;;;;;;15.07;54.23;101744.38;5034463;28;20136;-57
2023/06/11 04:20:24;;;;;;;11.45;2.83;;;;;;;15.23;53.29;101750.72;5039761;28;20125;-58
2023/06/11 04:22:50;;;;;;;7.55;2.90;;;;;;;15.27;53.59;101747.84;5034377;28;20049;-57
2023/06/11 04:25:17;;;;;;;11.10;4.07;;;;;;;15.27;53.14;101750.53;5033714;28;20041;-58
2023/06/11 04:27:45;;;;;;;5.18;2.25;;;;;;;15.36;53.43;101750.94;5034186;28;20084;-57
2023/06/11 04:30:13;;;;;;;8.25;2.85;;;;;;;15.44;52.26;101753.22;5034126;28;20053;-57
2023/06/11 04:32:40;;;;;;;4.55;2.78;;;;;;;15.50;52.01;101752.91;5035308;28;20053;-59
2023/06/11 04:35:07;;;;;;;8.07;2.25;;;;;;;15.49;52.53;101756.50;5034039;28;20111;-58
2023/06/11 04:37:40;;;;;;;9.15;2.13;;;;;;;15.57;51.95;101750.81;5031956;28;20379;-57
2023/06/11 04:40:10;;;;;;;8.23;2.83;;;;;;;15.57;52.00;101749.00;5033915;28;20077;-57
2023/06/11 04:42:42;;;;;;;9.88;3.25;;;;;;;15.62;51.78;101755.91;5034007;28;20055;-57
2023/06/11 04:45:10;;;;;;;5.90;2.47;;;;;;;15.64;51.52;101754.00;5033263;28;20059;-58
2023/06/11 04:47:37;;;;;;;6.50;2.55;;;;;;;15.68;51.63;101744.94;5031868;28;20053;-57
2023/06/11 04:50:05;;;;;;;7.38;2.40;;;;;;;15.70;51.92;101749.22;5034556;28;20049;-57
2023/06/11 04:52:32;;;;;;;7.28;2.58;;;;;;;15.79;51.17;101747.94;5032898;28;20049;-57
2023/06/11 04:55:00;;;;;;;5.20;2.88;;;;;;;15.87;51.42;101748.41;5034276;28;20045;-58
2023/06/11 04:57:26;;;;;;;7.38;3.40;;;;;;;15.94;50.37;101747.13;5033285;28;20053;-59
2023/06/11 04:59:53;;;;;;;4.55;2.20;;;;;;;16.00;50.19;101745.09;5032503;28;20136;-57
2023/06/11 05:02:23;;;;;;;8.20;3.75;;;;;;;16.02;50.04;101754.75;5033117;28;20137;-59
2023/06/11 05:04:53;;;;;;;8.15;2.53;;;;;;;16.01;50.94;101752.16;5034132;28;20065;-57
2023/06/11 05:07:20;;;;;;;8.37;2.70;;;;;;;16.03;50.68;101755.59;5031894;28;20128;-59
2023/06/11 05:09:47;;;;;;;10.02;3.40;;;;;;;16.11;50.50;101748.03;5033736;28;20049;-57
2023/06/11 05:12:13;;;;;;;8.45;2.70;;;;;;;16.19;50.12;101747.66;5032173;28;20045;-58
2023/06/11 05:14:40;;;;;;;11.38;2.50;;;;;;;16.21;50.37;101754.59;5049750;28;20064;-57
2023/06/11 05:17:06;;;;;;;17.20;2.80;;;;;;;16.22;50.60;101748.34;5032488;28;21651;-59
2023/06/11 05:19:33;;;;;;;6.35;3.35;;;;;;;16.29;50.00;101749.72;5031814;28;20056;-57
2023/06/11 05:22:00;;;;;;;4.10;2.47;;;;;;;16.34;49.93;101750.31;5033812;28;20057;-57
2023/06/11 05:24:29;;;;;;;7.50;2.50;;;;;;;16.40;49.25;101751.81;5033817;28;20053;-58
2023/06/11 05:26:56;;;;;;;11.77;2.60;;;;;;;16.49;49.40;101750.44;5032211;28;20088;-57
2023/06/11 05:29:24;;;;;;;4.95;3.08;;;;;;;16.54;48.92;101751.03;5031564;28;20060;-57
2023/06/11 05:31:51;;;;;;;6.40;2.10;;;;;;;16.62;48.88;101742.63;5032336;28;20647;-57
2023/06/11 05:34:18;;;;;;;3.83;2.47;;;;;;;16.60;48.51;101744.53;5033597;28;20080;-57
2023/06/11 05:36:48;;;;;;;9.55;2.67;;;;;;;16.69;48.55;101744.03;5033263;28;20343;-57
2023/06/11 05:39:15;;;;;;;5.65;2.28;;;;;;;16.73;48.75;101750.03;5029334;28;20045;-58
2023/06/11 05:41:41;;;;;;;4.70;2.70;;;;;;;16.82;47.89;101750.41;5029991;28;20124;-58
2023/06/11 05:44:08;;;;;;;11.35;2.30;;;;;;;16.86;48.38;101751.97;5032614;28;20041;-57
2023/06/11 05:46:34;;;;;;;8.35;2.45;;;;;;;16.93;48.51;101752.47;5032507;28;20347;-58
2023/06/11 05:49:02;;;;;;;7.53;2.67;;;;;;;17.01;48.05;101754.72;5032376;28;20099;-57
2023/06/11 05:51:28;;;;;;;7.53;2.42;;;;;;;17.10;47.61;101758.66;5032907;28;20059;-57
2023/06/11 05:53:55;;;;;;;12.93;2.72;;;;;;;17.12;46.95;101762.13;5032774;28;20045;-57
2023/06/11 05:56:21;;;;;;;6.40;3.03;;;;;;;17.15;47.43;101760.13;5030439;28;20143;-58
2023/06/11 05:58:48;;;;;;;3.90;2.10;;;;;;;17.19;47.13;101763.50;5032604;28;20156;-57
2023/06/11 06:01:15;;;;;;;5.63;2.47;;;;;;;17.24;47.84;101766.75;5032373;28;20140;-57
2023/06/11 06:03:41;;;;;;;4.43;2.33;;;;;;;17.35;46.56;101767.00;5031181;28;20045;-57
2023/06/11 06:06:08;;;;;;;7.85;2.92;;;;;;;17.42;47.06;101768.34;5030863;28;20049;-57
2023/06/11 06:08:35;;;;;;;8.32;2.78;;;;;;;17.52;45.92;101767.81;5031301;28;20478;-58
2023/06/11 06:11:02;;;;;;;7.45;2.90;;;;;;;17.50;46.52;101762.56;5031226;28;20048;-58
2023/06/11 06:13:28;;;;;;;5.13;2.63;;;;;;;17.58;46.26;101767.47;5032039;28;20492;-57
2023/06/11 06:15:55;;;;;;;4.95;2.40;;;;;;;17.71;45.74;101765.78;5031925;28;20053;-57
2023/06/11 06:18:22;;;;;;;5.45;2.50;;;;;;;17.74;45.57;101764.75;5032355;28;20474;-58
2023/06/11 06:20:49;;;;;;;6.05;2.60;;;;;;;17.84;46.00;101765.06;5031921;28;20501;-58
2023/06/11 06:23:15;;;;;;;9.52;2.63;;;;;;;17.97;45.89;101761.56;5031726;28;20057;-58
2023/06/11 06:25:42;;;;;;;4.30;2.30;;;;;;;18.05;45.34;101763.78;5033031;28;20080;-57
2023/06/11 06:28:09;;;;;;;7.85;2.60;;;;;;;18.17;45.03;101772.84;5032679;28;20049;-58
2023/06/11 06:30:38;;;;;;;7.35;2.50;;;;;;;18.27;45.05;101765.13;5029626;28;20053;-57
2023/06/11 06:33:05;;;;;;;9.18;2.67;;;;;;;18.29;45.05;101771.22;5030243;28;20124;-57
2023/06/11 06:35:32;;;;;;;5.38;3.08;;;;;;;18.35;44.12;101760.16;5032380;28;20327;-57
2023/06/11 06:38:00;;;;;;;8.40;2.20;;;;;;;18.40;44.43;101768.75;5031775;28;20061;-57
2023/06/11 06:40:27;;;;;;;7.45;2.35;;;;;;;18.46;44.72;101768.38;5031832;28;20140;-57
2023/06/11 06:42:53;;;;;;;15.30;3.50;;;;;;;18.57;44.43;101764.13;5031732;28;20140;-57
2023/06/11 06:45:20;;;;;;;4.00;2.40;;;;;;;18.66;44.33;101763.56;5032055;28;20128;-57
2023/06/11 06:47:46;;;;;;;6.05;3.25;;;;;;;18.74;44.14;101755.06;5028461;28;20480;-57
2023/06/11 06:50:13;;;;;;;4.18;2.33;;;;;;;18.85;43.49;101764.13;5030778;28;20045;-58
2023/06/11 06:52:40;;;;;;;7.93;2.88;;;;;;;18.95;42.99;101763.56;5031295;28;20052;-57
2023/06/11 06:55:07;;;;;;;6.80;2.47;;;;;;;18.94;42.74;101756.47;5031303;28;20742;-57
2023/06/11 06:57:34;;;;;;;6.78;2.72;;;;;;;19.06;43.13;101766.34;5031036;28;20187;-57
2023/06/11 07:00:00;;;;;;;8.93;3.25;;;;;;;19.02;43.20;101762.19;5035227;28;20049;-57
2023/06/11 07:02:27;;;;;;;17.33;3.13;;;;;;;19.16;42.96;101764.81;5039741;28;20053;-57
2023/06/11 07:04:53;;;;;;;9.27;3.97;;;;;;;19.24;43.13;101764.28;5028911;28;20175;-57
2023/06/11 07:07:20;;;;;;;7.57;3.25;;;;;;;19.38;42.96;101766.91;5031594;28;20076;-57
2023/06/11 07:09:47;;;;;;;12.07;3.10;;;;;;;19.47;42.18;101764.56;5031518;28;20140;-58
2023/06/11 07:12:13;;;;;;;10.65;2.80;;;;;;;19.58;42.69;101762.91;5036222;28;20041;-57
2023/06/11 07:14:40;;;;;;;7.75;2.78;;;;;;;19.51;42.11;101761.59;5035530;28;20045;-57
2023/06/11 07:17:06;;;;;;;9.40;2.70;;;;;;;19.57;42.03;101761.19;5033848;28;20049;-59
2023/06/11 07:19:33;;;;;;;29.52;4.45;;;;;;;19.56;42.21;101764.81;5035656;28;20064;-57
2023/06/11 07:21:59;;;;;;;5.55;3.25;;;;;;;19.68;42.41;101759.59;5036390;28;20144;-57
2023/06/11 07:24:26;;;;;;;7.35;3.15;;;;;;;19.51;42.21;101761.59;5017798;28;20092;-57
2023/06/11 07:26:52;;;;;;;10.50;3.10;;;;;;;19.53;42.05;101765.03;5048956;28;20128;-57
2023/06/11 07:29:20;;;;;;;8.15;2.80;;;;;;;19.50;42.32;101765.25;5029466;28;20045;-57
2023/06/11 07:31:46;;;;;;;5.47;2.95;;;;;;;19.83;42.49;101763.06;5033688;28;20052;-57
2023/06/11 07:34:15;;;;;;;5.75;2.78;;;;;;;19.70;41.85;101771.06;5017705;28;20042;-56
2023/06/11 07:36:41;;;;;;;6.38;2.85;;;;;;;19.88;41.98;101769.84;5032452;28;20057;-56
2023/06/11 07:39:08;;;;;;;5.28;3.28;;;;;;;20.07;41.96;101760.50;5035002;28;20042;-57
2023/06/11 07:41:36;;;;;;;10.18;4.13;;;;;;;20.19;41.31;101767.72;5030098;28;20109;-57
2023/06/11 07:44:02;;;;;;;6.10;2.70;;;;;;;20.14;41.57;101764.50;5032166;28;20052;-57
2023/06/11 07:46:28;;;;;;;10.10;3.42;;;;;;;20.27;41.93;101754.63;5032484;28;20076;-57
2023/06/11 07:48:55;;;;;;;9.30;4.10;;;;;;;20.43;40.83;101761.56;5032312;28;20045;-60
2023/06/11 07:51:23;;;;;;;7.40;3.58;;;;;;;20.46;40.47;101753.28;5030158;28;20041;-57
2023/06/11 07:53:50;;;;;;;13.60;3.47;;;;;;;20.41;41.03;101761.66;5035432;28;20038;-58
2023/06/11 07:56:17;;;;;;;5.22;3.28;;;;;;;20.49;41.20;101761.13;5036491;28;20045;-57
2023/06/11 07:58:44;;;;;;;9.82;3.63;;;;;;;20.69;40.66;101765.94;5034805;28;20132;-57
2023/06/11 08:01:10;;;;;;;10.57;4.10;;;;;;;20.97;39.94;101758.53;5035985;28;20446;-57
2023/06/11 08:03:37;;;;;;;10.18;3.72;;;;;;;21.20;39.83;101754.16;5033138;28;20068;-57
2023/06/11 08:06:03;;;;;;;7.63;3.10;;;;;;;21.33;39.71;101759.44;5034679;28;20068;-57
2023/06/11 08:08:30;;;;;;;6.35;3.17;;;;;;;21.49;39.86;101758.34;5035116;28;20053;-57
2023/06/11 08:10:56;;;;;;;10.70;4.25;;;;;;;21.42;40.59;101758.78;5033591;28;20083;-57
2023/06/11 08:13:23;;;;;;;7.85;3.95;;;;;;;21.60;40.00;101764.59;5034166;28;20073;-57
2023/06/11 08:15:50;;;;;;;11.48;4.43;;;;;;;21.48;39.67;101756.63;5034506;28;20049;-57
2023/06/11 08:18:16;;;;;;;5.45;2.97;;;;;;;21.61;39.65;101760.06;5034794;28;20111;-57
2023/06/11 08:20:46;;;;;;;10.18;3.20;;;;;;;21.41;39.82;101757.06;5032439;28;20045;-57
2023/06/11 09:43:33;;;;;;;10.45;3.50;;;;;;;23.84;33.29;101713.34;5006753;28;20120;-59
2023/06/11 09:46:02;;;;;;;11.73;3.90;;;;;;;24.35;32.99;101715.97;5032052;28;20136;-60
2023/06/11 09:48:29;;;;;;;16.95;6.70;;;;;;;24.69;32.75;101715.69;5031570;28;20510;-59
2023/06/11 09:50:56;;;;;;;9.05;4.28;;;;;;;25.03;31.94;101715.31;5032545;28;20092;-59
2023/06/11 09:53:23;;;;;;;7.63;3.60;;;;;;;25.18;31.45;101720.28;5009106;28;20064;-59
2023/06/11 09:55:50;;;;;;;7.07;3.67;;;;;;;25.59;29.98;101723.69;5033571;28;20136;-58
2023/06/11 09:58:22;;;;;;;10.57;2.97;;;;;;;25.63;29.25;101714.28;5031323;28;20053;-57
2023/06/11 10:00:52;;;;;;;6.30;3.60;;;;;;;26.04;29.52;101717.63;5031712;28;20057;-58
2023/06/11 10:03:19;;;;;;;11.95;3.80;;;;;;;26.08;29.68;101719.03;5031816;28;20056;-58
2023/06/11 10:05:46;;;;;;;9.70;4.13;;;;;;;26.27;29.55;101711.81;5031752;28;20085;-57
2023/06/11 10:08:21;;;;;;;11.35;4.07;;;;;;;25.56;29.05;101716.72;5027350;28;20049;-58
2023/06/11 10:10:56;;;;;;;9.70;4.15;;;;;;;25.41;30.06;101713.59;5031878;28;20084;-57
2023/06/11 10:13:31;;;;;;;9.38;4.43;;;;;;;25.81;29.94;101717.97;5032115;28;20051;-58
2023/06/11 10:16:00;;;;;;;11.50;3.92;;;;;;;26.08;29.26;101719.03;5030904;28;20061;-57
2023/06/11 10:18:27;;;;;;;14.02;4.25;;;;;;;26.40;28.80;101717.75;5033157;28;20049;-57
2023/06/11 10:20:57;;;;;;;9.48;3.25;;;;;;;26.72;27.62;101716.44;5032788;28;20053;-57
2023/06/11 10:23:40;;;;;;;6.00;2.95;;;;;;;26.83;27.78;101710.81;5029564;28;20046;-58
2023/06/11 10:26:11;;;;;;;8.38;3.42;;;;;;;26.83;28.07;101708.09;5021403;28;20076;-57
2023/06/11 10:28:43;;;;;;;7.75;3.20;;;;;;;25.67;29.25;101715.72;5012881;28;20052;-57
2023/06/11 10:31:10;;;;;;;7.22;3.92;;;;;;;26.04;29.66;101714.94;5026970;28;20070;-59
2023/06/11 10:33:43;;;;;;;12.75;3.60;;;;;;;25.71;29.00;101714.41;5017406;28;20064;-58
2023/06/11 10:36:24;;;;;;;9.52;4.07;;;;;;;25.33;29.85;101718.88;5030352;28;20045;-58
2023/06/11 10:39:21;;;;;;;6.80;3.95;;;;;;;25.16;29.99;101706.03;5031745;28;20412;-58
2023/06/11 10:42:01;;;;;;;12.93;4.60;;;;;;;25.68;29.08;101701.19;5021528;28;20580;-57
2023/06/11 10:44:32;;;;;;;10.23;3.97;;;;;;;26.37;29.16;101715.34;5033612;28;20123;-58
2023/06/11 10:47:02;;;;;;;;;;;;;;;26.56;27.28;101712.53;5037093;28;20421;-57
2023/06/11 10:49:30;;;;;;;12.15;4.10;;;;;;;27.34;26.12;101710.28;5052507;28;19925;-57
2023/06/11 10:52:00;;;;;;;6.38;3.45;;;;;;;28.34;25.08;101717.03;5018462;28;20045;-58
2023/06/11 10:54:35;;;;;;;10.02;4.85;;;;;;;29.22;23.67;101712.19;5034658;28;20057;-59
2023/06/11 10:57:02;;;;;;;12.35;4.70;;;;;;;29.84;20.46;101711.63;5034456;28;20397;-58
2023/06/11 10:59:31;;;;;;;11.30;5.78;;;;;;;30.37;20.22;101709.25;5026990;28;20054;-59
2023/06/11 11:01:58;;;;;;;13.05;5.05;;;;;;;31.09;20.58;101705.41;5013728;28;20133;-58
2023/06/11 11:04:25;;;;;;;8.32;4.40;;;;;;;31.44;20.41;101703.09;5017575;28;20053;-59
2023/06/11 11:07:07;;;;;;;10.13;3.55;;;;;;;32.16;19.65;101712.59;5034096;28;20057;-58
2023/06/11 11:09:35;;;;;;;8.98;3.78;;;;;;;33.31;19.44;101700.00;5033659;28;20053;-58
2023/06/11 11:12:02;;;;;;;9.10;4.03;;;;;;;33.63;18.93;101708.69;5032658;28;20522;-59
2023/06/11 11:14:30;;;;;;;7.97;4.38;;;;;;;33.79;18.76;101694.69;5015469;28;20080;-60
2023/06/11 11:17:00;;;;;;;12.18;5.38;;;;;;;33.01;19.27;101693.81;5032052;28;20056;-59
2023/06/11 11:19:28;;;;;;;11.27;4.05;;;;;;;32.11;19.66;101693.19;5035966;28;20156;-59
2023/06/11 11:21:55;;;;;;;13.45;5.55;;;;;;;31.96;20.16;101691.28;5035501;28;20045;-58
2023/06/11 11:24:21;;;;;;;10.30;4.05;;;;;;;33.00;19.64;101682.00;5033862;28;20410;-59
2023/06/11 11:26:48;;;;;;;10.85;4.30;;;;;;;33.31;18.91;101689.03;5033965;28;20053;-58
2023/06/11 11:29:15;;;;;;;11.02;4.70;;;;;;;33.34;19.17;101685.91;5032754;28;20053;-59
2023/06/11 11:31:43;;;;;;;9.93;4.85;;;;;;;33.77;19.00;101683.06;5033639;28;20454;-57
2023/06/11 11:34:10;;;;;;;9.50;4.72;;;;;;;34.20;18.28;101685.59;5005281;28;20086;-58
2023/06/11 11:36:37;;;;;;;5.55;3.65;;;;;;;34.69;17.91;101680.06;5015274;28;20046;-58
2023/06/11 11:39:13;;;;;;;7.93;4.45;;;;;;;34.05;17.85;101678.56;5032195;28;20052;-59
2023/06/11 11:41:46;;;;;;;10.77;5.32;;;;;;;33.73;18.50;101664.50;5035670;28;20046;-58
2023/06/11 11:44:14;;;;;;;8.68;3.80;;;;;;;33.50;18.48;101659.22;5035080;28;20076;-58
2023/06/11 11:46:42;;;;;;;4.47;3.10;;;;;;;34.13;18.36;101660.03;5034459;28;20049;-58
2023/06/11 11:49:09;;;;;;;12.23;4.32;;;;;;;32.37;20.48;101659.84;5034811;28;20406;-59
2023/06/11 11:51:41;;;;;;;6.15;4.47;;;;;;;33.89;18.93;101660.56;5031276;28;20224;-59
2023/06/11 11:54:12;;;;;;;14.43;6.65;;;;;;;34.17;18.45;101658.59;5024427;28;20053;-58
2023/06/11 11:56:39;;;;;;;7.07;4.72;;;;;;;34.58;18.50;101658.75;5021993;28;20052;-58
2023/06/11 11:59:21;;;;;;;9.05;3.72;;;;;;;34.58;17.76;101653.25;5031853;28;20084;-58
2023/06/11 12:01:58;;;;;;;11.05;4.28;;;;;;;35.75;17.12;101646.31;5029208;28;20048;-58
2023/06/11 12:04:35;;;;;;;7.65;5.03;;;;;;;34.40;17.76;101646.44;5033224;28;20077;-59
2023/06/11 12:07:07;;;;;;;8.63;4.10;;;;;;;34.35;18.37;101638.84;5033326;28;20060;-58
2023/06/11 12:09:36;;;;;;;8.88;3.95;;;;;;;34.88;17.86;101646.34;5031583;28;20053;-58
2023/06/11 12:12:05;;;;;;;9.95;5.13;;;;;;;34.24;18.68;101642.19;5030765;28;20081;-58
2023/06/11 12:14:32;;;;;;;11.88;5.93;;;;;;;35.00;17.67;101642.97;5012732;28;20634;-58
2023/06/11 12:16:59;;;;;;;11.07;5.00;;;;;;;35.27;17.79;101649.31;5031726;28;20116;-58
2023/06/11 12:19:28;;;;;;;8.93;4.53;;;;;;;35.29;17.33;101642.56;5045368;28;20107;-58
2023/06/11 12:21:55;;;;;;;14.18;4.63;;;;;;;33.57;18.58;101632.75;5031492;28;20077;-59
2023/06/11 12:24:23;;;;;;;6.07;4.43;;;;;;;33.79;18.34;101642.59;5031062;28;20041;-59
2023/06/11 12:26:53;;;;;;;11.98;5.30;;;;;;;35.30;17.73;101632.41;5032961;28;20049;-59
2023/06/11 12:29:19;;;;;;;;;;;;;;;36.58;16.17;101639.16;5030537;28;20092;-57
2023/06/11 12:31:47;;;;;;;7.90;4.40;;;;;;;36.11;15.77;101633.91;5031191;28;20027;-60
2023/06/11 12:34:15;;;;;;;7.72;5.00;;;;;;;36.96;15.49;101623.63;5032331;28;20061;-57
2023/06/11 12:36:43;;;;;;;7.80;4.90;;;;;;;36.13;15.62;101637.28;5033021;28;20053;-60
2023/06/11 12:39:10;;;;;;;6.85;5.10;;;;;;;37.99;14.83;101630.41;5031166;28;20582;-60
2023/06/11 12:41:37;;;;;;;12.02;5.10;;;;;;;37.57;14.96;101622.00;5032006;28;20087;-59
2023/06/11 12:44:04;;;;;;;7.93;5.00;;;;;;;39.01;14.20;101623.22;5032645;28;20385;-58
2023/06/11 12:46:30;;;;;;;5.90;4.60;;;;;;;38.80;14.46;101627.41;5032716;28;20050;-59
2023/06/11 12:48:57;;;;;;;5.68;4.75;;;;;;;39.21;13.24;101618.19;5033500;28;20136;-59